This is the latest recevied weather packets stored in our database for station/object EB2GLU-13. If no packets are shown the sender has not sent any weather packets the latest 10 day(s).
| Time | Temp. | Humidity | Pressure | Rain* | Wind** | Luminosity | Snow |
|---|---|---|---|---|---|---|---|
| 1777792485 | 15.56° C | 88% | 1012.9 hPa | 0 mm | - | - | - |
| 1777791735 | 15.56° C | 88% | 1013 hPa | 0 mm | - | - | - |
| 1777790985 | 15° C | 88% | 1013 hPa | 0 mm | - | - | - |
| 1777790235 | 14.44° C | 90% | 1012.9 hPa | 0 mm | - | - | - |
| 1777789485 | 13.33° C | 93% | 1012.9 hPa | 0 mm | - | - | - |
| 1777788735 | 12.78° C | 93% | 1013 hPa | 0 mm | - | - | - |
| 1777787985 | 12.22° C | 93% | 1012.6 hPa | 0 mm | - | - | - |
| 1777787235 | 12.22° C | 93% | 1012.8 hPa | 0 mm | - | - | - |
| 1777786485 | 12.22° C | 94% | 1012.6 hPa | 0 mm | - | - | - |
| 1777785735 | 12.22° C | 93% | 1012.8 hPa | 0 mm | - | - | - |
| 1777784985 | 12.22° C | 93% | 1012.6 hPa | 0 mm | - | - | - |
| 1777784235 | 12.22° C | 93% | 1012.6 hPa | 0 mm | - | - | - |
| 1777783485 | 12.78° C | 93% | 1012.4 hPa | 0 mm | - | - | - |
| 1777782735 | 12.78° C | 92% | 1012.4 hPa | 0 mm | - | - | - |
| 1777780485 | 13.33° C | 91% | 1012.5 hPa | 0 mm | - | - | - |
| 1777779734 | 13.33° C | 90% | 1012.5 hPa | 0 mm | - | - | - |
| 1777778984 | 13.89° C | 89% | 1012.4 hPa | 0 mm | - | - | - |
| 1777778235 | 14.44° C | 86% | 1012.4 hPa | 0 mm | - | - | - |
| 1777777484 | 14.44° C | 87% | 1012.3 hPa | 0 mm | - | - | - |
| 1777776734 | 13.33° C | 92% | 1012.7 hPa | 0 mm | - | - | - |
| 1777775984 | 13.33° C | 93% | 1012.8 hPa | 0 mm | - | - | - |
| 1777775234 | 13.33° C | 93% | 1012.8 hPa | 0 mm | - | - | - |
| 1777774484 | 13.33° C | 93% | 1013.1 hPa | 0 mm | - | - | - |
| 1777773734 | 13.33° C | 93% | 1013.1 hPa | 0 mm | - | - | - |
| 1777772984 | 13.33° C | 93% | 1013.2 hPa | 0 mm | - | - | - |
* Rain latest hour (hover to see other rain measurements)
** Current wind speed in m/s (hover to see current wind gust speed)